createdAt,value
2022-10-25T00:01:43.764Z,6.35
2022-10-25T00:04:10.824Z,7.53
2022-10-25T00:06:37.673Z,6.00
2022-10-25T00:09:04.507Z,5.90
2022-10-25T00:11:32.746Z,5.68
2022-10-25T00:14:05.640Z,5.78
2022-10-25T00:16:38.035Z,7.07
2022-10-25T00:19:05.793Z,6.90
2022-10-25T00:21:32.461Z,5.90
2022-10-25T00:23:59.205Z,6.45
2022-10-25T00:26:25.866Z,5.32
2022-10-25T00:28:54.633Z,8.27
2022-10-25T00:31:21.264Z,6.43
2022-10-25T00:33:47.948Z,6.03
2022-10-25T00:36:17.944Z,7.10
2022-10-25T00:38:46.275Z,6.50
2022-10-25T00:41:23.281Z,7.15
2022-10-25T00:44:31.700Z,7.05
2022-10-25T00:47:09.056Z,5.80
2022-10-25T00:49:38.664Z,6.75
2022-10-25T00:52:08.210Z,6.57
2022-10-25T00:54:41.557Z,6.30
2022-10-25T00:57:16.085Z,6.35
2022-10-25T00:59:44.847Z,7.20
2022-10-25T01:02:15.240Z,6.60
2022-10-25T01:04:43.768Z,6.30
2022-10-25T01:07:14.024Z,6.75
2022-10-25T01:09:46.258Z,6.30
2022-10-25T01:12:23.944Z,6.60
2022-10-25T01:14:58.237Z,5.95
2022-10-25T01:17:40.014Z,5.88
2022-10-25T01:20:26.890Z,6.50
2022-10-25T01:23:02.936Z,5.93
2022-10-25T01:25:47.836Z,6.30
2022-10-25T01:28:17.539Z,6.63
2022-10-25T01:31:15.808Z,6.10
2022-10-25T01:33:51.266Z,6.15
2022-10-25T01:36:35.987Z,6.82
2022-10-25T01:39:46.180Z,6.60
2022-10-25T01:42:43.808Z,6.80
2022-10-25T01:45:27.672Z,6.28
2022-10-25T01:48:05.511Z,6.55
2022-10-25T01:50:41.269Z,6.30
2022-10-25T01:53:12.090Z,6.35
2022-10-25T01:55:54.995Z,6.32
2022-10-25T01:58:21.594Z,6.60
2022-10-25T02:01:05.359Z,6.25
2022-10-25T02:04:02.054Z,7.05
2022-10-25T02:06:58.069Z,6.32
2022-10-25T02:09:43.645Z,6.10
2022-10-25T02:12:21.464Z,6.32
2022-10-25T02:15:22.924Z,6.15
2022-10-25T02:17:57.881Z,5.80
2022-10-25T02:20:30.127Z,5.55
2022-10-25T02:22:59.022Z,6.22
2022-10-25T02:25:27.050Z,6.78
2022-10-25T02:28:01.213Z,5.72
2022-10-25T02:30:32.357Z,6.97
2022-10-25T02:32:59.211Z,6.47
2022-10-25T02:35:29.992Z,6.25
2022-10-25T02:37:57.726Z,6.60
2022-10-25T02:40:27.522Z,6.55
2022-10-25T02:42:54.226Z,6.35
2022-10-25T02:45:21.858Z,6.20
2022-10-25T02:47:54.005Z,6.72
2022-10-25T02:52:47.410Z,6.00
2022-10-25T02:55:15.415Z,5.90
2022-10-25T02:57:42.105Z,6.05
2022-10-25T03:00:10.331Z,5.88
2022-10-25T03:02:36.939Z,7.20
2022-10-25T03:05:03.865Z,6.53
2022-10-25T03:07:30.613Z,6.50
2022-10-25T03:09:57.337Z,6.00
2022-10-25T03:12:24.244Z,6.57
2022-10-25T03:14:51.206Z,5.90
2022-10-25T03:17:18.090Z,6.38
2022-10-25T03:19:44.791Z,5.78
2022-10-25T03:22:11.428Z,5.80
2022-10-25T03:24:38.225Z,5.80
2022-10-25T03:27:05.055Z,5.63
2022-10-25T03:29:31.706Z,6.00
2022-10-25T03:31:58.349Z,6.40
2022-10-25T03:34:25.026Z,7.05
2022-10-25T03:36:52.455Z,6.15
2022-10-25T03:39:22.135Z,5.70
2022-10-25T03:41:49.169Z,6.00
2022-10-25T03:44:15.911Z,5.63
2022-10-25T03:46:42.816Z,5.65
2022-10-25T03:49:09.651Z,5.40
2022-10-25T03:51:36.462Z,5.63
2022-10-25T03:54:03.380Z,5.80
2022-10-25T03:56:33.012Z,6.35
2022-10-25T03:59:07.568Z,6.30
2022-10-25T04:01:37.410Z,7.32
2022-10-25T04:04:08.354Z,5.30
2022-10-25T04:06:36.601Z,5.82
2022-10-25T04:09:04.491Z,6.68
2022-10-25T04:11:33.583Z,6.57
2022-10-25T04:14:02.817Z,5.85
2022-10-25T04:16:32.741Z,6.38
2022-10-25T04:19:02.182Z,6.30
2022-10-25T04:21:31.669Z,5.68
2022-10-25T04:24:03.518Z,7.20
2022-10-25T04:26:36.773Z,6.57
2022-10-25T04:31:37.307Z,6.68
2022-10-25T04:34:09.005Z,6.00
2022-10-25T04:36:43.407Z,7.20
2022-10-25T04:39:12.388Z,6.78
2022-10-25T04:41:40.176Z,6.57
2022-10-25T04:44:11.307Z,5.82
2022-10-25T04:46:46.341Z,6.57
2022-10-25T04:49:19.714Z,6.80
2022-10-25T04:51:49.011Z,6.25
2022-10-25T04:54:20.583Z,5.78
2022-10-25T04:56:48.909Z,6.82
2022-10-25T04:59:17.517Z,6.68
2022-10-25T05:01:48.563Z,6.45
2022-10-25T05:04:20.250Z,10.77
2022-10-25T05:06:50.619Z,6.25
2022-10-25T05:12:06.447Z,6.07
2022-10-25T05:14:35.889Z,6.45
2022-10-25T05:17:05.405Z,6.65
2022-10-25T05:19:40.407Z,7.00
2022-10-25T05:22:09.396Z,6.57
2022-10-25T05:24:38.332Z,6.75
2022-10-25T05:27:07.189Z,7.07
2022-10-25T05:29:38.869Z,6.68
2022-10-25T05:32:10.374Z,6.93
2022-10-25T05:34:40.605Z,5.88
2022-10-25T05:37:12.351Z,7.10
2022-10-25T05:39:43.006Z,6.03
2022-10-25T05:42:11.509Z,6.85
2022-10-25T05:44:40.938Z,6.78
2022-10-25T05:47:12.677Z,6.20
2022-10-25T05:49:42.824Z,6.15
2022-10-25T05:52:12.759Z,7.18
2022-10-25T05:54:41.459Z,6.20
2022-10-25T05:57:11.584Z,7.82
2022-10-25T05:59:44.781Z,6.72
2022-10-25T06:02:18.168Z,8.23
2022-10-25T06:04:52.275Z,6.10
2022-10-25T06:07:24.042Z,7.50
2022-10-25T06:09:53.959Z,9.10
2022-10-25T06:12:28.136Z,6.22
2022-10-25T06:14:59.005Z,8.85
2022-10-25T06:17:27.592Z,8.25
2022-10-25T06:19:56.536Z,7.45
2022-10-25T06:22:25.147Z,9.00
2022-10-25T06:24:55.773Z,9.75
2022-10-25T06:27:25.144Z,11.77
2022-10-25T06:29:55.236Z,9.05
2022-10-25T06:32:25.034Z,12.45
2022-10-25T06:34:54.450Z,7.43
2022-10-25T06:37:29.332Z,10.85
2022-10-25T06:39:58.139Z,13.23
2022-10-25T06:42:31.575Z,12.55
2022-10-25T06:45:00.942Z,13.43
2022-10-25T06:47:30.492Z,12.27
2022-10-25T06:50:02.404Z,13.65
2022-10-25T06:52:31.501Z,13.27
2022-10-25T06:55:00.720Z,13.90
2022-10-25T06:57:29.291Z,9.27
2022-10-25T06:59:56.484Z,14.75
2022-10-25T07:02:23.803Z,15.18
2022-10-25T07:04:53.032Z,10.77
2022-10-25T07:07:34.833Z,13.82
2022-10-25T07:10:02.410Z,14.80
2022-10-25T07:12:30.617Z,18.33
2022-10-25T07:15:00.822Z,19.27
2022-10-25T07:17:35.689Z,20.40
2022-10-25T07:20:04.268Z,18.38
2022-10-25T07:22:33.707Z,16.55
2022-10-25T07:25:03.847Z,11.77
2022-10-25T07:27:32.734Z,18.95
2022-10-25T07:30:01.359Z,19.92
2022-10-25T07:32:28.792Z,19.20
2022-10-25T07:37:31.738Z,19.85
2022-10-25T07:39:58.596Z,14.57
2022-10-25T07:42:28.015Z,23.85
2022-10-25T07:44:57.819Z,15.43
2022-10-25T07:47:28.053Z,19.50
2022-10-25T07:50:02.231Z,25.92
2022-10-25T07:52:32.596Z,24.35
2022-10-25T07:55:08.284Z,19.48
2022-10-25T07:57:37.470Z,24.73
2022-10-25T08:00:09.777Z,18.23
2022-10-25T08:02:38.310Z,17.73
2022-10-25T08:05:09.507Z,24.88
2022-10-25T08:07:38.752Z,22.50
2022-10-25T08:10:08.272Z,25.42
2022-10-25T08:12:41.174Z,17.23
2022-10-25T08:15:09.196Z,21.23
2022-10-25T08:17:39.320Z,24.17
2022-10-25T08:20:07.332Z,24.30
2022-10-25T08:22:35.349Z,21.40
2022-10-25T08:25:09.062Z,20.13
2022-10-25T08:27:41.175Z,21.55
2022-10-25T08:30:10.746Z,22.25
2022-10-25T08:32:44.285Z,23.48
2022-10-25T08:35:17.704Z,21.33
2022-10-25T08:37:49.612Z,23.85
2022-10-25T08:40:22.176Z,22.88
2022-10-25T08:43:24.110Z,21.67
2022-10-25T08:46:10.982Z,21.43
2022-10-25T08:48:45.547Z,22.30
2022-10-25T08:51:40.009Z,20.63
2022-10-25T08:54:20.792Z,19.98
2022-10-25T08:57:03.398Z,19.38
2022-10-25T08:59:40.178Z,19.60
2022-10-25T09:02:18.111Z,16.52
2022-10-25T09:04:45.093Z,18.73
2022-10-25T09:08:01.998Z,19.45
2022-10-25T09:10:52.694Z,17.45
2022-10-25T09:13:32.368Z,13.63
2022-10-25T09:16:13.593Z,15.90
2022-10-25T09:18:48.793Z,12.82
2022-10-25T09:21:23.341Z,16.58
2022-10-25T09:24:00.320Z,16.05
2022-10-25T09:26:48.686Z,16.90
2022-10-25T09:29:33.858Z,16.88
2022-10-25T09:32:08.159Z,15.88
2022-10-25T09:34:35.973Z,16.60
2022-10-25T09:37:20.032Z,15.23
2022-10-25T09:39:55.796Z,15.50
2022-10-25T09:42:58.363Z,18.63
2022-10-25T09:45:38.450Z,19.65
2022-10-25T09:48:37.210Z,21.45
2022-10-25T09:51:21.814Z,15.52
2022-10-25T09:53:50.929Z,17.90
2022-10-25T09:56:19.547Z,18.48
2022-10-25T09:58:50.429Z,19.55
2022-10-25T10:01:25.898Z,19.20
2022-10-25T10:03:56.842Z,19.13
2022-10-25T10:06:32.483Z,19.40
2022-10-25T10:09:14.015Z,20.67
2022-10-25T10:11:42.413Z,16.03
2022-10-25T10:14:34.636Z,20.25
2022-10-25T10:17:02.403Z,19.65
2022-10-25T10:19:33.299Z,15.90
2022-10-25T10:22:10.112Z,13.35
2022-10-25T10:24:59.892Z,17.80
2022-10-25T10:27:28.442Z,21.73
2022-10-25T10:30:19.640Z,15.10
2022-10-25T10:32:47.220Z,20.75
2022-10-25T10:35:37.324Z,15.48
2022-10-25T10:38:21.161Z,19.77
2022-10-25T10:40:52.012Z,19.75
2022-10-25T10:43:34.865Z,12.60
2022-10-25T10:46:09.578Z,20.08
2022-10-25T10:48:44.365Z,16.38
2022-10-25T10:54:19.707Z,16.50
2022-10-25T10:56:54.396Z,17.10
2022-10-25T10:59:56.486Z,12.70
2022-10-25T11:02:41.350Z,15.82
2022-10-25T11:05:34.343Z,15.95
2022-10-25T11:08:13.027Z,18.20
2022-10-25T11:10:42.951Z,12.88
2022-10-25T11:13:18.684Z,12.02
2022-10-25T11:15:52.045Z,15.43
2022-10-25T11:18:30.977Z,13.55
2022-10-25T11:21:13.675Z,17.60
2022-10-25T11:24:09.322Z,13.13
2022-10-25T11:27:06.222Z,14.70
2022-10-25T11:29:36.364Z,13.18
2022-10-25T11:32:52.695Z,12.95
2022-10-25T11:36:08.780Z,12.93
2022-10-25T11:39:12.354Z,14.02
2022-10-25T11:41:51.284Z,13.85
2022-10-25T11:45:06.406Z,14.43
2022-10-25T11:48:06.833Z,13.05
2022-10-25T11:50:50.346Z,15.05
2022-10-25T11:53:36.293Z,14.40
2022-10-25T11:56:16.533Z,12.75
2022-10-25T11:58:57.509Z,13.00
2022-10-25T12:01:48.171Z,13.18
2022-10-25T12:04:29.543Z,11.50
2022-10-25T12:07:16.930Z,12.88
2022-10-25T12:13:30.646Z,10.20
2022-10-25T12:16:04.997Z,9.60
2022-10-25T12:18:49.188Z,9.20
2022-10-25T12:21:27.380Z,9.07
2022-10-25T12:24:03.654Z,8.85
2022-10-25T12:26:53.334Z,9.57
2022-10-25T12:29:34.630Z,11.45
2022-10-25T12:32:06.381Z,11.60
2022-10-25T12:35:02.363Z,11.10
2022-10-25T12:37:49.076Z,10.90
2022-10-25T12:40:20.657Z,11.20
2022-10-25T12:42:58.770Z,9.43
2022-10-25T12:45:58.399Z,9.63
2022-10-25T12:48:48.991Z,8.57
2022-10-25T12:51:50.498Z,10.55
2022-10-25T12:55:08.002Z,10.68
2022-10-25T12:57:48.240Z,9.23
2022-10-25T13:00:23.200Z,9.98
2022-10-25T13:03:37.360Z,8.77
2022-10-25T13:06:19.693Z,9.90
2022-10-25T13:11:40.890Z,10.65
2022-10-25T13:14:23.574Z,8.60
2022-10-25T13:16:51.130Z,8.20
2022-10-25T13:20:00.894Z,8.60
2022-10-25T13:22:37.729Z,8.23
2022-10-25T13:25:14.377Z,8.23
2022-10-25T13:28:17.709Z,8.00
2022-10-25T13:30:45.784Z,9.32
2022-10-25T13:33:21.926Z,8.40
2022-10-25T13:35:55.183Z,8.73
2022-10-25T13:38:23.788Z,7.85
2022-10-25T13:41:14.990Z,7.88
2022-10-25T13:44:08.283Z,7.90
2022-10-25T13:46:41.349Z,7.80
2022-10-25T13:49:27.391Z,7.57
2022-10-25T13:52:18.953Z,7.82
2022-10-25T13:54:55.391Z,7.45
2022-10-25T13:57:51.926Z,7.45
2022-10-25T14:00:22.898Z,7.40
2022-10-25T14:03:10.032Z,7.30
2022-10-25T14:06:02.221Z,7.15
2022-10-25T14:08:47.735Z,6.97
2022-10-25T14:11:51.484Z,7.05
2022-10-25T14:14:35.890Z,7.32
2022-10-25T14:17:34.272Z,6.75
2022-10-25T14:20:07.736Z,7.15
2022-10-25T14:22:50.374Z,7.50
2022-10-25T14:25:27.935Z,7.30
2022-10-25T14:28:19.444Z,7.20
2022-10-25T14:31:13.614Z,6.55
2022-10-25T14:33:53.475Z,6.65
2022-10-25T14:36:31.362Z,6.80
2022-10-25T14:39:00.655Z,6.72
2022-10-25T14:41:28.885Z,6.45
2022-10-25T14:43:56.636Z,6.30
2022-10-25T14:46:28.550Z,6.45
2022-10-25T14:48:59.104Z,6.32
2022-10-25T14:51:36.088Z,6.50
2022-10-25T14:54:22.786Z,6.25
2022-10-25T14:56:53.871Z,6.57
2022-10-25T14:59:45.050Z,5.90
2022-10-25T15:02:32.449Z,6.70
2022-10-25T15:05:03.008Z,6.28
2022-10-25T15:07:58.200Z,6.55
2022-10-25T15:10:46.123Z,5.95
2022-10-25T15:13:33.597Z,6.32
2022-10-25T15:16:26.267Z,6.43
2022-10-25T15:19:18.339Z,5.80
2022-10-25T15:21:56.923Z,5.88
2022-10-25T15:24:29.831Z,6.07
2022-10-25T15:27:06.027Z,5.90
2022-10-25T15:29:42.566Z,5.55
2022-10-25T15:32:24.528Z,5.15
2022-10-25T15:34:58.217Z,5.82
2022-10-25T15:37:26.473Z,4.95
2022-10-25T15:39:57.982Z,5.88
2022-10-25T15:42:27.401Z,5.55
2022-10-25T15:44:54.342Z,5.10
2022-10-25T15:47:32.707Z,6.18
2022-10-25T15:50:05.908Z,5.63
2022-10-25T15:52:32.909Z,5.03
2022-10-25T15:54:59.679Z,5.50
2022-10-25T15:57:30.334Z,5.88
2022-10-25T16:00:02.869Z,5.80
2022-10-25T16:02:33.017Z,4.90
2022-10-25T16:05:00.567Z,5.13
2022-10-25T16:07:27.624Z,5.40
2022-10-25T16:09:55.076Z,4.85
2022-10-25T16:12:35.457Z,5.47
2022-10-25T16:15:07.003Z,5.18
2022-10-25T16:17:34.164Z,4.90
2022-10-25T16:20:01.009Z,6.40
2022-10-25T16:22:31.409Z,5.53
2022-10-25T16:25:02.938Z,5.10
2022-10-25T16:27:29.656Z,5.32
2022-10-25T16:29:56.543Z,5.50
2022-10-25T16:32:26.203Z,5.07
2022-10-25T16:34:53.123Z,4.65
2022-10-25T16:37:22.694Z,4.80
2022-10-25T16:39:53.595Z,4.80
2022-10-25T16:42:36.180Z,5.78
2022-10-25T16:45:24.909Z,5.45
2022-10-25T16:47:56.248Z,5.65
2022-10-25T16:50:25.317Z,4.70
2022-10-25T16:52:58.857Z,5.65
2022-10-25T16:55:33.040Z,5.50
2022-10-25T16:58:02.744Z,5.63
2022-10-25T17:03:17.559Z,4.90
2022-10-25T17:05:44.391Z,4.85
2022-10-25T17:08:14.237Z,5.47
2022-10-25T17:10:45.258Z,5.55
2022-10-25T17:13:17.744Z,5.60
2022-10-25T17:15:45.652Z,4.97
2022-10-25T17:18:20.886Z,5.13
2022-10-25T17:20:50.316Z,5.47
2022-10-25T17:23:19.050Z,5.00
2022-10-25T17:25:56.344Z,5.22
2022-10-25T17:28:23.516Z,4.90
2022-10-25T17:30:50.561Z,4.80
2022-10-25T17:33:19.371Z,5.05
2022-10-25T17:35:49.290Z,5.10
2022-10-25T17:38:16.705Z,6.32
2022-10-25T17:40:45.735Z,5.00
2022-10-25T17:43:13.939Z,4.82
2022-10-25T17:45:42.470Z,5.00
2022-10-25T17:48:09.424Z,6.22
2022-10-25T17:50:42.191Z,6.75
2022-10-25T17:53:10.601Z,7.50
2022-10-25T17:55:41.148Z,6.72
2022-10-25T17:58:09.212Z,7.10
2022-10-25T18:00:37.563Z,6.10
2022-10-25T18:03:08.647Z,6.15
2022-10-25T18:05:39.760Z,5.63
2022-10-25T18:08:08.963Z,5.35
2022-10-25T18:10:40.466Z,4.65
2022-10-25T18:13:11.235Z,4.65
2022-10-25T18:15:40.985Z,5.15
2022-10-25T18:18:07.884Z,4.65
2022-10-25T18:20:50.570Z,4.97
2022-10-25T18:23:19.503Z,4.95
2022-10-25T18:25:53.055Z,5.38
2022-10-25T18:28:22.986Z,5.53
2022-10-25T18:30:49.713Z,4.63
2022-10-25T18:33:18.912Z,5.43
2022-10-25T18:35:45.888Z,5.15
2022-10-25T18:38:20.716Z,4.47
2022-10-25T18:40:47.482Z,5.32
2022-10-25T18:43:15.678Z,5.80
2022-10-25T18:45:44.746Z,5.60
2022-10-25T18:48:13.240Z,4.53
2022-10-25T18:50:42.961Z,5.22
2022-10-25T18:53:10.004Z,6.18
2022-10-25T18:55:53.294Z,6.28
2022-10-25T18:58:21.218Z,5.78
2022-10-25T19:01:44.380Z,5.18
2022-10-25T19:04:22.996Z,5.60
2022-10-25T19:06:53.992Z,4.80
2022-10-25T19:09:27.289Z,6.18
2022-10-25T19:11:59.264Z,5.32
2022-10-25T19:14:30.901Z,4.30
2022-10-25T19:17:06.654Z,4.53
2022-10-25T19:19:35.589Z,4.78
2022-10-25T19:22:12.221Z,5.30
2022-10-25T19:24:42.865Z,7.13
2022-10-25T19:27:12.478Z,7.40
2022-10-25T19:29:41.828Z,7.15
2022-10-25T19:32:18.670Z,5.50
2022-10-25T19:35:00.415Z,7.82
2022-10-25T19:37:51.736Z,5.20
2022-10-25T19:40:18.810Z,8.15
2022-10-25T19:42:47.445Z,7.38
2022-10-25T19:45:15.994Z,7.68
2022-10-25T19:47:43.859Z,5.80
2022-10-25T19:50:13.123Z,6.32
2022-10-25T19:52:43.278Z,6.82
2022-10-25T19:55:16.872Z,6.75
2022-10-25T19:57:47.471Z,8.30
2022-10-25T20:00:14.916Z,6.28
2022-10-25T20:02:47.940Z,6.10
2022-10-25T20:05:15.916Z,8.20
2022-10-25T20:07:45.508Z,8.15
2022-10-25T20:10:16.209Z,8.60
2022-10-25T20:12:44.462Z,8.07
2022-10-25T20:15:18.014Z,5.57
2022-10-25T20:17:46.611Z,8.27
2022-10-25T20:20:14.359Z,8.60
2022-10-25T20:22:42.985Z,8.32
2022-10-25T20:25:16.646Z,8.43
2022-10-25T20:27:44.906Z,8.85
2022-10-25T20:30:14.547Z,9.73
2022-10-25T20:32:44.394Z,9.65
2022-10-25T20:35:13.950Z,9.18
2022-10-25T20:37:44.124Z,8.90
2022-10-25T20:40:11.603Z,9.38
2022-10-25T20:42:40.322Z,10.05
2022-10-25T20:45:07.820Z,9.70
2022-10-25T20:47:38.607Z,10.25
2022-10-25T20:50:05.855Z,10.23
2022-10-25T20:52:47.679Z,10.20
2022-10-25T20:57:45.172Z,9.15
2022-10-25T21:00:17.034Z,9.77
2022-10-25T21:02:46.520Z,10.43
2022-10-25T21:05:14.637Z,9.95
2022-10-25T21:07:43.520Z,10.30
2022-10-25T21:10:11.921Z,10.32
2022-10-25T21:12:41.090Z,10.55
2022-10-25T21:15:11.876Z,10.10
2022-10-25T21:17:44.266Z,9.73
2022-10-25T21:20:14.930Z,10.38
2022-10-25T21:22:42.844Z,9.55
2022-10-25T21:25:13.472Z,9.75
2022-10-25T21:27:41.496Z,10.35
2022-10-25T21:30:12.938Z,10.05
2022-10-25T21:32:40.080Z,9.82
2022-10-25T21:35:12.810Z,10.82
2022-10-25T21:37:41.122Z,10.68
2022-10-25T21:40:14.014Z,9.93
2022-10-25T21:42:41.078Z,10.35
2022-10-25T21:45:14.310Z,10.55
2022-10-25T21:47:41.291Z,10.57
2022-10-25T21:50:09.634Z,10.57
2022-10-25T21:52:40.873Z,12.52
2022-10-25T21:55:12.212Z,12.30
2022-10-25T21:57:42.357Z,12.32
2022-10-25T22:00:11.597Z,11.52
2022-10-25T22:02:39.410Z,11.68
2022-10-25T22:05:07.308Z,12.05
2022-10-25T22:07:34.173Z,12.40
2022-10-25T22:10:01.327Z,12.00
2022-10-25T22:12:30.578Z,11.27
2022-10-25T22:14:57.628Z,12.77
2022-10-25T22:17:24.695Z,12.02
2022-10-25T22:19:51.712Z,11.77
2022-10-25T22:22:19.466Z,12.65
2022-10-25T22:24:46.547Z,12.43
2022-10-25T22:27:14.045Z,12.73
2022-10-25T22:29:41.937Z,13.07
2022-10-25T22:32:08.842Z,13.32
2022-10-25T22:34:35.983Z,13.35
2022-10-25T22:37:03.926Z,12.73
2022-10-25T22:39:37.423Z,13.52
2022-10-25T22:42:12.278Z,13.23
2022-10-25T22:44:45.665Z,13.77
2022-10-25T22:47:17.636Z,13.60
2022-10-25T22:49:45.464Z,12.48
2022-10-25T22:52:15.226Z,12.82
2022-10-25T22:54:43.059Z,12.43
2022-10-25T22:57:17.405Z,12.45
2022-10-25T22:59:46.152Z,12.85
2022-10-25T23:02:14.072Z,12.65
2022-10-25T23:04:40.820Z,12.48
2022-10-25T23:07:08.624Z,12.57
2022-10-25T23:09:35.398Z,12.38
2022-10-25T23:12:02.346Z,11.80
2022-10-25T23:14:31.702Z,12.73
2022-10-25T23:16:58.948Z,13.25
2022-10-25T23:19:25.818Z,13.68
2022-10-25T23:21:53.510Z,13.18
2022-10-25T23:24:22.895Z,12.80
2022-10-25T23:26:49.664Z,12.65
2022-10-25T23:29:16.375Z,12.57
2022-10-25T23:31:47.450Z,13.05
2022-10-25T23:37:01.740Z,12.68
2022-10-25T23:39:28.487Z,12.90
2022-10-25T23:41:57.119Z,12.18
2022-10-25T23:44:24.852Z,12.68
2022-10-25T23:46:52.396Z,11.88
2022-10-25T23:49:19.225Z,12.02
2022-10-25T23:51:46.386Z,13.48
2022-10-25T23:54:13.955Z,11.98
2022-10-25T23:56:43.888Z,12.70
2022-10-25T23:59:11.529Z,12.18
